sensor_id;sensor_type;location;lat;lon;timestamp;pressure;altitude;pressure_sealevel;temperature;humidity
77247;BME280;66279;42.820;23.374;2023-12-04T00:01:14;96205.22;;;12.05;54.95
77247;BME280;66279;42.820;23.374;2023-12-04T00:03:40;96206.66;;;12.01;55.32
77247;BME280;66279;42.820;23.374;2023-12-04T00:06:05;96203.38;;;11.99;55.43
77247;BME280;66279;42.820;23.374;2023-12-04T00:08:32;96217.22;;;11.88;54.98
77247;BME280;66279;42.820;23.374;2023-12-04T00:10:57;96216.63;;;11.86;54.95
77247;BME280;66279;42.820;23.374;2023-12-04T00:13:23;96205.63;;;11.89;54.96
77247;BME280;66279;42.820;23.374;2023-12-04T00:15:48;96214.78;;;11.93;55.22
77247;BME280;66279;42.820;23.374;2023-12-04T00:18:14;96222.75;;;11.86;55.01
77247;BME280;66279;42.820;23.374;2023-12-04T00:20:39;96221.06;;;11.79;55.49
77247;BME280;66279;42.820;23.374;2023-12-04T00:23:05;96241.06;;;11.81;55.11
77247;BME280;66279;42.820;23.374;2023-12-04T00:25:30;96243.72;;;11.74;55.70
77247;BME280;66279;42.820;23.374;2023-12-04T00:27:55;96248.22;;;11.74;55.22
77247;BME280;66279;42.820;23.374;2023-12-04T00:30:21;96248.22;;;11.74;55.03
77247;BME280;66279;42.820;23.374;2023-12-04T00:32:46;96246.19;;;11.76;54.93
77247;BME280;66279;42.820;23.374;2023-12-04T00:35:12;96251.44;;;11.69;54.87
77247;BME280;66279;42.820;23.374;2023-12-04T00:37:38;96255.53;;;11.72;54.94
77247;BME280;66279;42.820;23.374;2023-12-04T00:40:05;96230.81;;;11.51;54.51
77247;BME280;66279;42.820;23.374;2023-12-04T00:42:31;96254.50;;;11.66;54.80
77247;BME280;66279;42.820;23.374;2023-12-04T00:44:56;96254.72;;;11.65;55.04
77247;BME280;66279;42.820;23.374;2023-12-04T00:47:22;96262.03;;;11.63;55.26
77247;BME280;66279;42.820;23.374;2023-12-04T00:49:47;96238.13;;;11.49;54.33
77247;BME280;66279;42.820;23.374;2023-12-04T00:52:13;96260.41;;;11.62;54.94
77247;BME280;66279;42.820;23.374;2023-12-04T00:54:39;96261.44;;;11.61;54.95
77247;BME280;66279;42.820;23.374;2023-12-04T00:57:06;96265.06;;;11.53;55.30
77247;BME280;66279;42.820;23.374;2023-12-04T00:59:31;96251.63;;;11.55;54.82
77247;BME280;66279;42.820;23.374;2023-12-04T01:01:57;96262.84;;;11.57;54.90
77247;BME280;66279;42.820;23.374;2023-12-04T01:04:22;96265.47;;;11.57;55.19
77247;BME280;66279;42.820;23.374;2023-12-04T01:06:47;96269.56;;;11.52;55.25
77247;BME280;66279;42.820;23.374;2023-12-04T01:09:13;96267.56;;;11.61;54.89
77247;BME280;66279;42.820;23.374;2023-12-04T01:11:38;96268.13;;;11.50;55.33
77247;BME280;66279;42.820;23.374;2023-12-04T01:14:04;96273.84;;;11.53;55.05
77247;BME280;66279;42.820;23.374;2023-12-04T01:16:29;96267.94;;;11.51;55.67
77247;BME280;66279;42.820;23.374;2023-12-04T01:18:55;96272.78;;;11.48;55.16
77247;BME280;66279;42.820;23.374;2023-12-04T01:21:20;96268.34;;;11.48;55.54
77247;BME280;66279;42.820;23.374;2023-12-04T01:23:45;96274.44;;;11.42;55.70
77247;BME280;66279;42.820;23.374;2023-12-04T01:26:11;96272.38;;;11.44;55.46
77247;BME280;66279;42.820;23.374;2023-12-04T01:28:37;96265.63;;;11.42;55.29
77247;BME280;66279;42.820;23.374;2023-12-04T01:31:02;96270.97;;;11.48;55.14
77247;BME280;66279;42.820;23.374;2023-12-04T01:33:28;96270.59;;;11.51;55.22
77247;BME280;66279;42.820;23.374;2023-12-04T01:35:54;96271.78;;;11.42;55.26
77247;BME280;66279;42.820;23.374;2023-12-04T01:38:19;96279.34;;;11.45;55.22
77247;BME280;66279;42.820;23.374;2023-12-04T01:40:44;96253.75;;;11.24;55.55
77247;BME280;66279;42.820;23.374;2023-12-04T01:43:10;96280.94;;;11.40;54.88
77247;BME280;66279;42.820;23.374;2023-12-04T01:45:35;96282.56;;;11.41;54.90
77247;BME280;66279;42.820;23.374;2023-12-04T01:48:02;96271.94;;;11.34;55.27
77247;BME280;66279;42.820;23.374;2023-12-04T01:50:28;96289.06;;;11.38;55.75
77247;BME280;66279;42.820;23.374;2023-12-04T01:52:54;96298.06;;;11.44;54.61
77247;BME280;66279;42.820;23.374;2023-12-04T01:55:19;96286.63;;;11.37;55.14
77247;BME280;66279;42.820;23.374;2023-12-04T01:57:47;96290.28;;;11.36;55.10
77247;BME280;66279;42.820;23.374;2023-12-04T02:00:13;96293.56;;;11.38;55.26
77247;BME280;66279;42.820;23.374;2023-12-04T02:02:39;96300.03;;;11.28;55.56
77247;BME280;66279;42.820;23.374;2023-12-04T02:05:07;96276.31;;;11.14;55.14
77247;BME280;66279;42.820;23.374;2023-12-04T02:07:33;96305.38;;;11.35;54.98
77247;BME280;66279;42.820;23.374;2023-12-04T02:09:59;96301.25;;;11.26;54.76
77247;BME280;66279;42.820;23.374;2023-12-04T02:12:24;96311.41;;;11.16;54.93
77247;BME280;66279;42.820;23.374;2023-12-04T02:14:50;96320.44;;;11.28;54.80
77247;BME280;66279;42.820;23.374;2023-12-04T02:17:16;96324.50;;;11.24;55.20
77247;BME280;66279;42.820;23.374;2023-12-04T02:19:42;96323.06;;;11.21;55.18
77247;BME280;66279;42.820;23.374;2023-12-04T02:22:08;96314.47;;;11.19;54.95
77247;BME280;66279;42.820;23.374;2023-12-04T02:24:33;96314.69;;;11.18;55.46
77247;BME280;66279;42.820;23.374;2023-12-04T02:27:07;96317.25;;;11.11;54.80
77247;BME280;66279;42.820;23.374;2023-12-04T02:29:42;96326.06;;;11.12;54.38
77247;BME280;66279;42.820;23.374;2023-12-04T02:32:15;96322.38;;;11.13;54.91
77247;BME280;66279;42.820;23.374;2023-12-04T02:34:41;96324.81;;;11.14;54.74
77247;BME280;66279;42.820;23.374;2023-12-04T02:37:09;96330.97;;;11.15;54.70
77247;BME280;66279;42.820;23.374;2023-12-04T02:39:36;96320.69;;;11.05;54.44
77247;BME280;66279;42.820;23.374;2023-12-04T02:42:02;96330.28;;;11.06;55.22
77247;BME280;66279;42.820;23.374;2023-12-04T02:44:28;96327.25;;;11.09;54.95
77247;BME280;66279;42.820;23.374;2023-12-04T02:46:54;96326.63;;;11.07;54.77
77247;BME280;66279;42.820;23.374;2023-12-04T02:49:19;96329.66;;;11.04;54.85
77247;BME280;66279;42.820;23.374;2023-12-04T02:51:44;96334.56;;;11.07;54.73
77247;BME280;66279;42.820;23.374;2023-12-04T02:54:10;96327.41;;;11.01;53.93
77247;BME280;66279;42.820;23.374;2023-12-04T02:56:35;96332.53;;;11.02;55.04
77247;BME280;66279;42.820;23.374;2023-12-04T02:59:01;96329.03;;;11.02;54.60
77247;BME280;66279;42.820;23.374;2023-12-04T03:01:26;96331.88;;;11.00;53.95
77247;BME280;66279;42.820;23.374;2023-12-04T03:03:52;96325.72;;;10.93;55.19
77247;BME280;66279;42.820;23.374;2023-12-04T03:06:17;96335.94;;;10.96;54.61
77247;BME280;66279;42.820;23.374;2023-12-04T03:08:43;96330.81;;;10.95;54.76
77247;BME280;66279;42.820;23.374;2023-12-04T03:11:08;96336.75;;;10.97;54.27
77247;BME280;66279;42.820;23.374;2023-12-04T03:13:34;96326.94;;;10.91;54.77
77247;BME280;66279;42.820;23.374;2023-12-04T03:15:59;96331.59;;;10.89;54.43
77247;BME280;66279;42.820;23.374;2023-12-04T03:18:25;96334.06;;;10.90;54.73
77247;BME280;66279;42.820;23.374;2023-12-04T03:20:51;96336.91;;;10.89;53.99
77247;BME280;66279;42.820;23.374;2023-12-04T03:23:17;96334.66;;;10.92;54.51
77247;BME280;66279;42.820;23.374;2023-12-04T03:25:42;96340.56;;;10.88;54.44
77247;BME280;66279;42.820;23.374;2023-12-04T03:28:08;96341.16;;;10.90;54.41
77247;BME280;66279;42.820;23.374;2023-12-04T03:30:33;96343.78;;;10.83;54.97
77247;BME280;66279;42.820;23.374;2023-12-04T03:32:58;96342.56;;;10.86;54.70
77247;BME280;66279;42.820;23.374;2023-12-04T03:35:24;96343.22;;;10.88;54.74
77247;BME280;66279;42.820;23.374;2023-12-04T03:37:49;96345.59;;;10.82;54.89
77247;BME280;66279;42.820;23.374;2023-12-04T03:40:16;96345.81;;;10.81;54.47
77247;BME280;66279;42.820;23.374;2023-12-04T03:42:41;96346.84;;;10.87;54.78
77247;BME280;66279;42.820;23.374;2023-12-04T03:45:07;96350.94;;;10.89;54.71
77247;BME280;66279;42.820;23.374;2023-12-04T03:47:32;96355.25;;;10.90;53.94
77247;BME280;66279;42.820;23.374;2023-12-04T03:49:58;96360.94;;;10.87;54.74
77247;BME280;66279;42.820;23.374;2023-12-04T03:52:23;96345.06;;;10.87;54.51
77247;BME280;66279;42.820;23.374;2023-12-04T03:54:48;96365.66;;;10.92;54.40
77247;BME280;66279;42.820;23.374;2023-12-04T03:57:14;96366.16;;;10.80;55.00
77247;BME280;66279;42.820;23.374;2023-12-04T03:59:39;96338.69;;;10.81;54.88
77247;BME280;66279;42.820;23.374;2023-12-04T04:02:05;96362.75;;;10.87;54.91
77247;BME280;66279;42.820;23.374;2023-12-04T04:04:31;96351.72;;;10.83;54.82
77247;BME280;66279;42.820;23.374;2023-12-04T04:06:57;96359.44;;;10.78;54.82
77247;BME280;66279;42.820;23.374;2023-12-04T04:09:22;96354.97;;;10.78;54.77
77247;BME280;66279;42.820;23.374;2023-12-04T04:11:48;96367.06;;;10.88;54.56
77247;BME280;66279;42.820;23.374;2023-12-04T04:14:13;96374.75;;;10.82;54.59
77247;BME280;66279;42.820;23.374;2023-12-04T04:16:39;96375.50;;;10.76;54.88
77247;BME280;66279;42.820;23.374;2023-12-04T04:19:05;96369.84;;;10.79;54.34
77247;BME280;66279;42.820;23.374;2023-12-04T04:21:31;96379.78;;;10.77;54.50
77247;BME280;66279;42.820;23.374;2023-12-04T04:23:56;96382.66;;;10.76;54.33
77247;BME280;66279;42.820;23.374;2023-12-04T04:26:22;96373.13;;;10.81;54.04
77247;BME280;66279;42.820;23.374;2023-12-04T04:28:47;96382.66;;;10.76;54.85
77247;BME280;66279;42.820;23.374;2023-12-04T04:31:13;96388.97;;;10.75;54.75
77247;BME280;66279;42.820;23.374;2023-12-04T04:33:38;96383.84;;;10.73;54.32
77247;BME280;66279;42.820;23.374;2023-12-04T04:36:04;96380.63;;;10.78;54.87
77247;BME280;66279;42.820;23.374;2023-12-04T04:38:29;96387.50;;;10.72;54.67
77247;BME280;66279;42.820;23.374;2023-12-04T04:40:55;96387.50;;;10.72;55.17
77247;BME280;66279;42.820;23.374;2023-12-04T04:43:20;96393.63;;;10.73;54.14
77247;BME280;66279;42.820;23.374;2023-12-04T04:45:46;96399.34;;;10.76;54.77
77247;BME280;66279;42.820;23.374;2023-12-04T04:48:11;96395.47;;;10.72;54.23
77247;BME280;66279;42.820;23.374;2023-12-04T04:50:37;96392.16;;;10.70;54.00
77247;BME280;66279;42.820;23.374;2023-12-04T04:53:02;96399.31;;;10.70;54.24
77247;BME280;66279;42.820;23.374;2023-12-04T04:55:28;96402.75;;;10.70;54.29
77247;BME280;66279;42.820;23.374;2023-12-04T04:57:53;96406.97;;;10.65;54.47
77247;BME280;66279;42.820;23.374;2023-12-04T05:00:18;96406.59;;;10.68;54.09
77247;BME280;66279;42.820;23.374;2023-12-04T05:02:45;96402.31;;;10.67;54.06
77247;BME280;66279;42.820;23.374;2023-12-04T05:05:11;96408.75;;;10.57;54.37
77247;BME280;66279;42.820;23.374;2023-12-04T05:07:36;96410.59;;;10.57;54.59
77247;BME280;66279;42.820;23.374;2023-12-04T05:10:02;96414.88;;;10.58;53.73
77247;BME280;66279;42.820;23.374;2023-12-04T05:12:28;96412.44;;;10.56;54.54
77247;BME280;66279;42.820;23.374;2023-12-04T05:14:54;96416.13;;;10.62;54.38
77247;BME280;66279;42.820;23.374;2023-12-04T05:17:19;96417.78;;;10.63;53.84
77247;BME280;66279;42.820;23.374;2023-12-04T05:19:44;96414.94;;;10.65;54.00
77247;BME280;66279;42.820;23.374;2023-12-04T05:22:10;96412.22;;;10.58;54.08
77247;BME280;66279;42.820;23.374;2023-12-04T05:24:35;96421.19;;;10.57;54.13
77247;BME280;66279;42.820;23.374;2023-12-04T05:27:01;96407.75;;;10.58;53.82
77247;BME280;66279;42.820;23.374;2023-12-04T05:29:27;96420.38;;;10.56;53.86
77247;BME280;66279;42.820;23.374;2023-12-04T05:31:53;96421.19;;;10.57;54.34
77247;BME280;66279;42.820;23.374;2023-12-04T05:34:18;96424.38;;;10.52;54.15
77247;BME280;66279;42.820;23.374;2023-12-04T05:36:43;96415.13;;;10.63;54.42
77247;BME280;66279;42.820;23.374;2023-12-04T05:39:09;96419.78;;;10.61;54.17
77247;BME280;66279;42.820;23.374;2023-12-04T05:41:34;96429.31;;;10.55;54.75
77247;BME280;66279;42.820;23.374;2023-12-04T05:44:00;96435.34;;;10.49;53.89
77247;BME280;66279;42.820;23.374;2023-12-04T05:46:25;96434.91;;;10.46;57.68
77247;BME280;66279;42.820;23.374;2023-12-04T05:48:50;96437.03;;;10.35;60.15
77247;BME280;66279;42.820;23.374;2023-12-04T05:51:16;96430.38;;;10.25;59.64
77247;BME280;66279;42.820;23.374;2023-12-04T05:53:41;96433.75;;;10.19;59.09
77247;BME280;66279;42.820;23.374;2023-12-04T05:56:07;96433.59;;;10.20;59.58
77247;BME280;66279;42.820;23.374;2023-12-04T05:58:34;96433.22;;;10.38;58.68
77247;BME280;66279;42.820;23.374;2023-12-04T06:01:00;96440.09;;;10.54;57.51
77247;BME280;66279;42.820;23.374;2023-12-04T06:03:25;96433.84;;;10.25;46.78
77247;BME280;66279;42.820;23.374;2023-12-04T06:05:50;96439.47;;;8.43;45.31
77247;BME280;66279;42.820;23.374;2023-12-04T06:08:16;96436.59;;;8.52;48.57
77247;BME280;66279;42.820;23.374;2023-12-04T06:10:41;96437.41;;;8.99;49.56
77247;BME280;66279;42.820;23.374;2023-12-04T06:13:07;96440.38;;;9.34;50.00
77247;BME280;66279;42.820;23.374;2023-12-04T06:15:32;96442.13;;;9.56;50.07
77247;BME280;66279;42.820;23.374;2023-12-04T06:17:57;96441.41;;;9.77;50.30
77247;BME280;66279;42.820;23.374;2023-12-04T06:20:23;96436.81;;;8.89;44.22
77247;BME280;66279;42.820;23.374;2023-12-04T06:22:48;96443.56;;;8.45;45.11
77247;BME280;66279;42.820;23.374;2023-12-04T06:25:14;96445.44;;;8.83;46.55
77247;BME280;66279;42.820;23.374;2023-12-04T06:27:40;96445.78;;;9.03;48.12
77247;BME280;66279;42.820;23.374;2023-12-04T06:30:06;96451.75;;;9.19;49.33
77247;BME280;66279;42.820;23.374;2023-12-04T06:32:32;96460.13;;;9.23;50.40
77247;BME280;66279;42.820;23.374;2023-12-04T06:34:58;96469.09;;;9.37;49.71
77247;BME280;66279;42.820;23.374;2023-12-04T06:37:23;96468.28;;;9.51;48.80
77247;BME280;66279;42.820;23.374;2023-12-04T06:39:50;96469.94;;;9.52;47.99
77247;BME280;66279;42.820;23.374;2023-12-04T06:42:18;96476.69;;;9.55;47.63
77247;BME280;66279;42.820;23.374;2023-12-04T06:44:43;96473.31;;;9.61;47.61
77247;BME280;66279;42.820;23.374;2023-12-04T06:47:09;96480.97;;;9.71;47.19
77247;BME280;66279;42.820;23.374;2023-12-04T06:49:37;96482.97;;;9.68;47.62
77247;BME280;66279;42.820;23.374;2023-12-04T06:52:03;96479.69;;;9.66;49.58
77247;BME280;66279;42.820;23.374;2023-12-04T06:54:29;96485.53;;;9.77;50.30
77247;BME280;66279;42.820;23.374;2023-12-04T06:56:54;96476.16;;;9.74;51.18
77247;BME280;66279;42.820;23.374;2023-12-04T06:59:20;96487.81;;;9.65;50.99
77247;BME280;66279;42.820;23.374;2023-12-04T07:01:46;96488.69;;;9.57;50.65
77247;BME280;66279;42.820;23.374;2023-12-04T07:04:11;96463.09;;;9.43;49.84
77247;BME280;66279;42.820;23.374;2023-12-04T07:06:37;96486.53;;;9.61;49.02
77247;BME280;66279;42.820;23.374;2023-12-04T07:09:03;96473.47;;;9.59;48.82
77247;BME280;66279;42.820;23.374;2023-12-04T07:11:29;96481.88;;;9.78;48.41
77247;BME280;66279;42.820;23.374;2023-12-04T07:13:54;96477.41;;;9.78;49.10
77247;BME280;66279;42.820;23.374;2023-12-04T07:16:20;96491.66;;;9.77;50.22
77247;BME280;66279;42.820;23.374;2023-12-04T07:18:45;96489.91;;;9.84;50.78
77247;BME280;66279;42.820;23.374;2023-12-04T07:21:11;96498.19;;;9.81;51.84
77247;BME280;66279;42.820;23.374;2023-12-04T07:23:36;96485.81;;;9.67;51.76
77247;BME280;66279;42.820;23.374;2023-12-04T07:26:02;96494.63;;;9.59;51.26
77247;BME280;66279;42.820;23.374;2023-12-04T07:28:27;96502.41;;;9.61;50.62
77247;BME280;66279;42.820;23.374;2023-12-04T07:30:54;96492.34;;;9.56;50.27
77247;BME280;66279;42.820;23.374;2023-12-04T07:33:20;96496.41;;;9.67;49.61
77247;BME280;66279;42.820;23.374;2023-12-04T07:35:45;96493.19;;;9.72;49.16
77247;BME280;66279;42.820;23.374;2023-12-04T07:38:10;96502.31;;;9.84;49.05
77247;BME280;66279;42.820;23.374;2023-12-04T07:40:36;96500.03;;;9.81;50.42
77247;BME280;66279;42.820;23.374;2023-12-04T07:43:01;96503.41;;;10.04;50.55
77247;BME280;66279;42.820;23.374;2023-12-04T07:45:27;96496.81;;;10.00;51.85
77247;BME280;66279;42.820;23.374;2023-12-04T07:47:53;96499.94;;;9.89;51.65
77247;BME280;66279;42.820;23.374;2023-12-04T07:50:18;96510.50;;;9.59;51.89
77247;BME280;66279;42.820;23.374;2023-12-04T07:52:44;96511.31;;;9.60;51.27
77247;BME280;66279;42.820;23.374;2023-12-04T07:55:09;96509.69;;;9.59;50.84
77247;BME280;66279;42.820;23.374;2023-12-04T07:57:34;96516.09;;;9.64;49.77
77247;BME280;66279;42.820;23.374;2023-12-04T08:00:00;96514.72;;;9.68;49.56
77247;BME280;66279;42.820;23.374;2023-12-04T08:02:25;96523.53;;;9.76;49.62
77247;BME280;66279;42.820;23.374;2023-12-04T08:04:51;96519.38;;;9.81;50.62
77247;BME280;66279;42.820;23.374;2023-12-04T08:07:16;96518.34;;;9.97;50.98
77247;BME280;66279;42.820;23.374;2023-12-04T08:09:41;96522.09;;;9.88;52.28
77247;BME280;66279;42.820;23.374;2023-12-04T08:12:07;96516.34;;;9.84;52.97
77247;BME280;66279;42.820;23.374;2023-12-04T08:14:32;96523.72;;;9.59;52.38
77247;BME280;66279;42.820;23.374;2023-12-04T08:16:58;96523.25;;;9.56;51.73
77247;BME280;66279;42.820;23.374;2023-12-04T08:19:24;96522.16;;;9.50;51.08
77247;BME280;66279;42.820;23.374;2023-12-04T08:21:49;96524.53;;;9.60;51.00
77247;BME280;66279;42.820;23.374;2023-12-04T08:24:15;96526.09;;;9.69;50.31
77247;BME280;66279;42.820;23.374;2023-12-04T08:26:42;96524.03;;;9.79;49.76
77247;BME280;66279;42.820;23.374;2023-12-04T08:29:08;96521.19;;;9.81;50.87
77247;BME280;66279;42.820;23.374;2023-12-04T08:31:33;96528.84;;;10.05;50.74
77247;BME280;66279;42.820;23.374;2023-12-04T08:33:58;96522.84;;;9.97;52.02
77247;BME280;66279;42.820;23.374;2023-12-04T08:36:24;96519.44;;;9.88;52.73
77247;BME280;66279;42.820;23.374;2023-12-04T08:38:49;96519.16;;;9.53;53.19
77247;BME280;66279;42.820;23.374;2023-12-04T08:41:15;96489.94;;;9.32;52.26
77247;BME280;66279;42.820;23.374;2023-12-04T08:43:40;96521.28;;;9.58;51.90
77247;BME280;66279;42.820;23.374;2023-12-04T08:46:06;96527.38;;;9.58;51.34
77247;BME280;66279;42.820;23.374;2023-12-04T08:48:32;96533.28;;;9.60;50.54
77247;BME280;66279;42.820;23.374;2023-12-04T08:50:58;96517.63;;;9.74;49.94
77247;BME280;66279;42.820;23.374;2023-12-04T08:53:24;96509.78;;;9.80;50.34
77247;BME280;66279;42.820;23.374;2023-12-04T08:55:49;96523.56;;;10.05;50.92
77247;BME280;66279;42.820;23.374;2023-12-04T08:58:17;96530.31;;;10.08;51.64
77247;BME280;66279;42.820;23.374;2023-12-04T09:00:42;96533.41;;;9.97;52.98
77247;BME280;66279;42.820;23.374;2023-12-04T09:03:09;96522.63;;;9.68;53.14
77247;BME280;66279;42.820;23.374;2023-12-04T09:05:36;96525.91;;;9.56;52.78
77247;BME280;66279;42.820;23.374;2023-12-04T09:08:02;96520.31;;;9.51;52.04
77247;BME280;66279;42.820;23.374;2023-12-04T09:10:27;96507.94;;;9.51;51.54
77247;BME280;66279;42.820;23.374;2023-12-04T09:12:54;96508.59;;;9.68;50.96
77247;BME280;66279;42.820;23.374;2023-12-04T09:15:19;96513.97;;;9.75;50.26
77247;BME280;66279;42.820;23.374;2023-12-04T09:17:45;96507.06;;;9.74;50.57
77247;BME280;66279;42.820;23.374;2023-12-04T09:20:10;96509.44;;;9.98;51.09
77247;BME280;66279;42.820;23.374;2023-12-04T09:22:36;96511.44;;;10.11;51.64
77247;BME280;66279;42.820;23.374;2023-12-04T09:25:05;96499.75;;;9.90;52.56
77247;BME280;66279;42.820;23.374;2023-12-04T09:27:31;96515.81;;;9.74;53.75
77247;BME280;66279;42.820;23.374;2023-12-04T09:29:56;96518.03;;;9.48;53.38
77247;BME280;66279;42.820;23.374;2023-12-04T09:32:21;96513.69;;;9.55;52.51
77247;BME280;66279;42.820;23.374;2023-12-04T09:34:47;96512.50;;;9.57;52.47
77247;BME280;66279;42.820;23.374;2023-12-04T09:37:13;96515.44;;;9.62;51.39
77247;BME280;66279;42.820;23.374;2023-12-04T09:39:39;96512.63;;;9.64;51.04
77247;BME280;66279;42.820;23.374;2023-12-04T09:42:05;96513.34;;;9.73;50.54
77247;BME280;66279;42.820;23.374;2023-12-04T09:44:32;96509.22;;;9.85;51.69
77247;BME280;66279;42.820;23.374;2023-12-04T09:46:58;96509.69;;;10.03;51.31
77247;BME280;66279;42.820;23.374;2023-12-04T09:49:26;96505.63;;;10.01;52.34
77247;BME280;66279;42.820;23.374;2023-12-04T09:51:53;96500.41;;;9.78;54.45
77247;BME280;66279;42.820;23.374;2023-12-04T09:54:19;96492.41;;;9.48;53.77
77247;BME280;66279;42.820;23.374;2023-12-04T09:56:45;96493.88;;;9.51;52.75
77247;BME280;66279;42.820;23.374;2023-12-04T09:59:13;96465.91;;;9.41;52.40
77247;BME280;66279;42.820;23.374;2023-12-04T10:01:40;96489.53;;;9.58;51.56
77247;BME280;66279;42.820;23.374;2023-12-04T10:04:06;96473.94;;;9.63;51.03
77247;BME280;66279;42.820;23.374;2023-12-04T10:06:32;96482.59;;;9.72;50.77
77247;BME280;66279;42.820;23.374;2023-12-04T10:08:57;96484.34;;;9.94;50.79
77247;BME280;66279;42.820;23.374;2023-12-04T10:11:26;96490.44;;;10.09;51.06
77247;BME280;66279;42.820;23.374;2023-12-04T10:13:52;96482.97;;;9.98;52.33
77247;BME280;66279;42.820;23.374;2023-12-04T10:16:47;96485.25;;;9.86;54.43
77247;BME280;66279;42.820;23.374;2023-12-04T10:19:17;96483.41;;;9.42;54.05
77247;BME280;66279;42.820;23.374;2023-12-04T10:21:47;96474.63;;;9.42;53.34
77247;BME280;66279;42.820;23.374;2023-12-04T10:24:27;96480.16;;;9.55;52.14
77247;BME280;66279;42.820;23.374;2023-12-04T10:26:53;96474.22;;;9.53;51.56
77247;BME280;66279;42.820;23.374;2023-12-04T10:29:18;96472.41;;;9.68;50.62
77247;BME280;66279;42.820;23.374;2023-12-04T10:31:44;96466.00;;;9.78;50.84
77247;BME280;66279;42.820;23.374;2023-12-04T10:34:09;96471.84;;;9.88;51.33
77247;BME280;66279;42.820;23.374;2023-12-04T10:36:36;96471.53;;;10.12;51.05
77247;BME280;66279;42.820;23.374;2023-12-04T10:39:02;96465.19;;;9.92;52.71
77247;BME280;66279;42.820;23.374;2023-12-04T10:41:30;96464.91;;;9.72;54.18
77247;BME280;66279;42.820;23.374;2023-12-04T10:43:57;96460.69;;;9.48;54.58
77247;BME280;66279;42.820;23.374;2023-12-04T10:46:24;96456.25;;;9.49;53.44
77247;BME280;66279;42.820;23.374;2023-12-04T10:48:49;96454.25;;;9.51;52.35
77247;BME280;66279;42.820;23.374;2023-12-04T10:51:17;96411.47;;;9.32;51.95
77247;BME280;66279;42.820;23.374;2023-12-04T10:53:43;96456.91;;;9.65;51.08
77247;BME280;66279;42.820;23.374;2023-12-04T10:56:20;96460.81;;;9.69;50.98
77247;BME280;66279;42.820;23.374;2023-12-04T10:58:50;96457.56;;;9.82;51.62
77247;BME280;66279;42.820;23.374;2023-12-04T11:01:18;96446.13;;;9.97;51.68
77247;BME280;66279;42.820;23.374;2023-12-04T11:03:47;96455.44;;;9.93;52.39
77247;BME280;66279;42.820;23.374;2023-12-04T11:06:16;96392.72;;;9.57;53.96
77247;BME280;66279;42.820;23.374;2023-12-04T11:08:42;96438.00;;;9.54;54.50
77247;BME280;66279;42.820;23.374;2023-12-04T11:11:35;96439.56;;;9.48;52.88
77247;BME280;66279;42.820;23.374;2023-12-04T11:14:04;96435.72;;;9.51;52.25
77247;BME280;66279;42.820;23.374;2023-12-04T11:16:51;96432.00;;;9.45;51.36
77247;BME280;66279;42.820;23.374;2023-12-04T11:19:54;96420.97;;;9.56;50.98
77247;BME280;66279;42.820;23.374;2023-12-04T11:22:21;96419.72;;;9.67;50.31
77247;BME280;66279;42.820;23.374;2023-12-04T11:24:47;96424.22;;;9.88;51.41
77247;BME280;66279;42.820;23.374;2023-12-04T11:27:19;96424.41;;;10.01;51.85
77247;BME280;66279;42.820;23.374;2023-12-04T11:29:46;96424.50;;;9.93;52.93
77247;BME280;66279;42.820;23.374;2023-12-04T11:32:14;96423.84;;;9.91;54.28
77247;BME280;66279;42.820;23.374;2023-12-04T11:34:51;96419.72;;;9.52;53.64
77247;BME280;66279;42.820;23.374;2023-12-04T11:37:19;96415.03;;;9.54;52.80
77247;BME280;66279;42.820;23.374;2023-12-04T11:39:49;96377.78;;;9.34;52.21
77247;BME280;66279;42.820;23.374;2023-12-04T11:42:19;96395.91;;;9.52;51.53
77247;BME280;66279;42.820;23.374;2023-12-04T11:44:47;96373.75;;;9.38;51.16
77247;BME280;66279;42.820;23.374;2023-12-04T11:47:13;96393.53;;;9.57;50.87
77247;BME280;66279;42.820;23.374;2023-12-04T11:49:38;96394.31;;;9.87;51.41
77247;BME280;66279;42.820;23.374;2023-12-04T11:52:04;96387.06;;;10.11;51.25
77247;BME280;66279;42.820;23.374;2023-12-04T11:55:03;96393.22;;;9.82;53.54
77247;BME280;66279;42.820;23.374;2023-12-04T11:57:37;96376.69;;;9.58;54.16
77247;BME280;66279;42.820;23.374;2023-12-04T12:00:19;96377.31;;;9.45;53.43
77247;BME280;66279;42.820;23.374;2023-12-04T12:03:08;96374.69;;;9.45;53.05
77247;BME280;66279;42.820;23.374;2023-12-04T12:05:36;96374.69;;;9.45;51.79
77247;BME280;66279;42.820;23.374;2023-12-04T12:08:04;96364.19;;;9.52;51.97
77247;BME280;66279;42.820;23.374;2023-12-04T12:10:30;96364.81;;;9.54;51.63
77247;BME280;66279;42.820;23.374;2023-12-04T12:12:56;96365.38;;;9.64;50.83
77247;BME280;66279;42.820;23.374;2023-12-04T12:15:22;96373.78;;;10.04;51.70
77247;BME280;66279;42.820;23.374;2023-12-04T12:17:47;96368.66;;;10.03;52.19
77247;BME280;66279;42.820;23.374;2023-12-04T12:20:14;96368.38;;;9.76;54.35
77247;BME280;66279;42.820;23.374;2023-12-04T12:22:40;96357.00;;;9.61;54.93
77247;BME280;66279;42.820;23.374;2023-12-04T12:25:09;96359.19;;;9.42;54.04
77247;BME280;66279;42.820;23.374;2023-12-04T12:27:35;96333.50;;;9.36;52.98
77247;BME280;66279;42.820;23.374;2023-12-04T12:30:01;96352.88;;;9.43;52.45
77247;BME280;66279;42.820;23.374;2023-12-04T12:32:28;96350.03;;;9.45;51.81
77247;BME280;66279;42.820;23.374;2023-12-04T12:34:54;96350.16;;;9.52;51.66
77247;BME280;66279;42.820;23.374;2023-12-04T12:37:20;96349.78;;;9.55;50.80
77247;BME280;66279;42.820;23.374;2023-12-04T12:39:46;96346.72;;;9.87;51.93
77247;BME280;66279;42.820;23.374;2023-12-04T12:42:11;96346.31;;;10.05;51.59
77247;BME280;66279;42.820;23.374;2023-12-04T12:44:38;96343.19;;;9.80;53.64
77247;BME280;66279;42.820;23.374;2023-12-04T12:47:08;96345.47;;;9.68;55.10
77247;BME280;66279;42.820;23.374;2023-12-04T12:49:33;96337.84;;;9.44;54.31
77247;BME280;66279;42.820;23.374;2023-12-04T12:52:01;96333.13;;;9.39;53.46